Airfield :
LOGIN :

Register | Disclaimer

   EN    FR    IT 

 










Legend :    VFR   Marginal VFR   IFR   Intensive IFR   Very Intensive IFR
Visi :
Ceiling :
>= 8 km
>= 3000ft
5 to 8 km
1000 to 3000 ft
1500m to 5 km
500 to 1000 ft
800 to 1500m
200 to 500 ft
< 800m
< 200 ft
Symbols :   Thunderstorms  Fog  Heavy snow  Heavy precipitations  Wind > 20 kt
SIGMETs :     Misc.  Thunderstorms  Icing  Turbulence  Mountain Waves  Volcanic Ashes







- Airport Elevation : 465 ft
- IATA code : LEJ


EDDP - Leipzig Halle

CURRENT METAR :
  • 241850Z 28015KT 9999 FEW033 SCT100 09/05 Q1030 NOSIG

EXPIRED METARs :
  • 241820Z 29017KT 9999 FEW033 BKN095 09/05 Q1030 NOSIG
  • 241750Z 28014KT 9999 FEW033 SCT095 09/05 Q1030 NOSIG
  • 241720Z 27012KT 9999 FEW033 SCT095 09/05 Q1029 NOSIG
  • 241650Z 27013KT 9999 FEW033CB SCT070 09/05 Q1029 NOSIG
  • 241620Z 27014KT 9999 FEW033CB SCT100 09/05 Q1029 TEMPO 27015G25KT

TAF TAF EDDP
Valid from the 24 at 18:00 until the 25 at 18:00 UTC


241700Z 2418/2518 28013KT CAVOK
BECMG 2418/2420 27008KT
BECMG 2510/2512 33008KT
No reported NOTAMs for that airfield.



MET'MAP, your aeronautical weather chart ! - Copyright ORBIFLY December 2007 - Disclaimer

ORBIFLY MET'MAP TEAM :

Programming & Development : Alexandra Zaïnal
Concept & Development : Baudouin d'Aumeries
Co-Development & Prog : Marc-Olivier Méhu
Technical & hardware support : Manuel Goepfert

Contact : metmap@orbifly.com




SOURCES & CREDITS :

   NOAA